| time (UTC) | temp C | wind direction | speed KPH | gust KPH | rain 1hr cm | rain 24hr cm | rain mn cm | humidity % | barometer mb |
| 20260508151526 | 7 | 321 | 16.1 | 24.1 | 0.00 | 2.16 | 0.03 | 97 | 1001.7 |
| 20260508150024 | 7 | 293 | 16.1 | 24.1 | 0.00 | 2.16 | 0.03 | 97 | 1001.6 |
| 20260508144516 | 7 | 317 | 16.1 | 22.5 | 0.00 | 2.16 | 0.03 | 98 | 1001.5 |
| 20260508143015 | 7 | 310 | 12.9 | 22.5 | 0.00 | 2.16 | 0.03 | 98 | 1001.7 |
| 20260508141519 | 7 | 320 | 17.7 | 24.1 | 0.00 | 2.16 | 0.03 | 99 | 1001.7 |
| 20260508140020 | 6 | 314 | 17.7 | 25.7 | 0.00 | 2.16 | 0.03 | 99 | 1001.7 |
| 20260508134516 | 7 | 320 | 14.5 | 22.5 | 0.00 | 2.16 | 0.03 | 99 | 1001.8 |
| 20260508133013 | 7 | 298 | 14.5 | 22.5 | 0.00 | 2.16 | 0.03 | 99 | 1002.0 |
| 20260508131512 | 7 | 322 | 14.5 | 20.9 | 0.00 | 2.16 | 0.03 | 99 | 1002.2 |
| 20260508130011 | 6 | 312 | 17.7 | 27.4 | 0.00 | 2.16 | 0.03 | 99 | 1001.8 |
| 20260508124518 | 6 | 328 | 14.5 | 25.7 | 0.00 | 2.16 | 0.03 | 99 | 1001.8 |
| 20260508123014 | 6 | 310 | 14.5 | 19.3 | 0.00 | 2.16 | 0.03 | 99 | 1001.8 |
| 20260508121505 | 6 | 307 | 9.7 | 19.3 | 0.00 | 2.16 | 0.03 | 99 | 1001.7 |
| 20260508120005 | 6 | 293 | 12.9 | 19.3 | 0.00 | 2.18 | 0.03 | 99 | 1001.8 |
| 20260508114504 | 6 | 313 | 12.9 | 19.3 | 0.00 | 2.18 | 0.03 | 99 | 1001.9 |
| 20260508113106 | 6 | 309 | 11.3 | 16.1 | 0.00 | 2.18 | 0.03 | 99 | 1002.1 |
| 20260508111610 | 5 | 309 | 6.4 | 14.5 | 0.00 | 2.18 | 0.03 | 99 | 1002.3 |
| 20260508110059 | 6 | 304 | 9.7 | 12.9 | 0.00 | 2.18 | 0.03 | 99 | 1002.2 |
| 20260508104604 | 5 | 301 | 6.4 | 12.9 | 0.00 | 2.18 | 0.03 | 99 | 1002.0 |
| 20260508103056 | 5 | 326 | 9.7 | 12.9 | 0.00 | 2.18 | 0.03 | 99 | 1002.1 |
| 20260508101553 | 5 | 312 | 6.4 | 11.3 | 0.00 | 2.18 | 0.03 | 99 | 1002.4 |
| 20260508100051 | 5 | 314 | 3.2 | 9.7 | 0.00 | 2.18 | 0.03 | 99 | 1002.1 |
| 20260508094550 | 5 | 312 | 4.8 | 12.9 | 0.00 | 2.18 | 0.03 | 99 | 1002.3 |
| 20260508093053 | 5 | 310 | 8.0 | 14.5 | 0.00 | 2.18 | 0.03 | 99 | 1002.3 |
| 20260508091555 | 5 | 306 | 9.7 | 14.5 | 0.00 | 2.18 | 0.03 | 99 | 1002.1 |
| 20260508090054 | 5 | 307 | 4.8 | 12.9 | 0.00 | 2.18 | 0.03 | 99 | 1001.7 |
| 20260508084540 | 5 | 303 | 9.7 | 14.5 | 0.00 | 2.18 | 0.03 | 99 | 1001.5 |
| 20260508083039 | 5 | 304 | 8.0 | 14.5 | 0.03 | 2.18 | 0.03 | 99 | 1002.0 |
| 20260508081541 | 5 | 307 | 9.7 | 14.5 | 0.03 | 2.18 | 0.03 | 99 | 1002.1 |
| 20260508080050 | 5 | 300 | 9.7 | 16.1 | 0.03 | 2.18 | 0.03 | 99 | 1001.5 |
| 20260508074537 | 5 | 304 | 12.9 | 19.3 | 0.03 | 2.18 | 0.03 | 99 | 1001.5 |
| 20260508073044 | 5 | 314 | 16.1 | 20.9 | 0.00 | 2.16 | 0.00 | 99 | 1001.1 |
| 20260508071546 | 5 | 308 | 8.0 | 16.1 | 0.00 | 2.16 | 0.00 | 99 | 1001.4 |
| 20260508070049 | 5 | 296 | 11.3 | 19.3 | 0.00 | 2.16 | 0.00 | 99 | 1001.4 |
| 20260508064536 | 5 | 305 | 12.9 | 19.3 | 0.00 | 2.16 | 0.00 | 99 | 1001.5 |
| 20260508063031 | 6 | 294 | 14.5 | 22.5 | 0.00 | 2.16 | 0.00 | 99 | 1001.8 |
| 20260508061529 | 6 | 308 | 16.1 | 24.1 | 0.00 | 2.16 | 0.00 | 99 | 1001.4 |
| 20260508060034 | 6 | 329 | 16.1 | 24.1 | 0.00 | 2.16 | 0.00 | 99 | 1001.4 |
| 20260508054530 | 6 | 306 | 11.3 | 20.9 | 0.00 | 2.16 | 0.00 | 99 | 1001.7 |
| 20260508053022 | 6 | 306 | 11.3 | 19.3 | 0.00 | 2.16 | 0.00 | 99 | 1001.6 |
| 20260508051520 | 6 | 312 | 12.9 | 17.7 | 0.00 | 2.16 | 0.00 | 98 | 1001.6 |
| 20260508050017 | 7 | 316 | 9.7 | 14.5 | 0.00 | 2.16 | 0.00 | 99 | 1001.3 |
| 20260508044515 | 7 | 295 | 8.0 | 16.1 | 0.00 | 2.16 | 0.00 | 98 | 1001.2 |
| 20260508043015 | 7 | 304 | 11.3 | 16.1 | 0.00 | 2.16 | 0.00 | 98 | 1001.4 |
| 20260508041509 | 7 | 305 | 11.3 | 19.3 | 0.00 | 2.16 | 0.00 | 98 | 1001.3 |
| 20260508040007 | 8 | 314 | 9.7 | 14.5 | 0.00 | 2.16 | 0.00 | 98 | 1001.5 |
| 20260508034504 | 8 | 311 | 8.0 | 17.7 | 0.00 | 2.16 | 0.00 | 98 | 1001.8 |
| 20260508033001 | 8 | 326 | 12.9 | 17.7 | 0.00 | 2.16 | 0.00 | 99 | 1001.9 |
| 20260508031600 | 8 | 353 | 12.9 | 24.1 | 0.00 | 2.16 | 0.00 | 99 | 1001.9 |
| 20260508030109 | 8 | 291 | 12.9 | 19.3 | 0.00 | 2.16 | 2.16 | 98 | 1002.0 |
| 20260508024619 | 8 | 302 | 12.9 | 16.1 | 0.00 | 2.16 | 2.16 | 99 | 1002.1 |
| 20260508023055 | 8 | 290 | 6.4 | 14.5 | 0.00 | 2.16 | 2.16 | 98 | 1002.3 |
| 20260508021555 | 8 | 300 | 14.5 | 19.3 | 0.00 | 2.16 | 2.16 | 98 | 1002.1 |
| 20260508020107 | 8 | 312 | 12.9 | 19.3 | 0.00 | 2.16 | 2.16 | 98 | 1002.1 |
| 20260508014559 | 8 | 305 | 9.7 | 16.1 | 0.00 | 2.16 | 2.16 | 98 | 1002.4 |
| 20260508013104 | 9 | 297 | 11.3 | 22.5 | 0.00 | 2.16 | 2.16 | 98 | 1002.3 |
| 20260508011554 | 9 | 308 | 14.5 | 20.9 | 0.00 | 2.16 | 2.16 | 97 | 1002.3 |
| 20260508010051 | 9 | 299 | 17.7 | 29.0 | 0.00 | 2.16 | 2.16 | 97 | 1002.0 |
| 20260508004548 | 11 | 289 | 6.4 | 9.7 | 0.00 | 2.16 | 2.16 | 98 | 1001.8 |
| 20260508003046 | 11 | 324 | 4.8 | 12.9 | 0.00 | 2.16 | 2.16 | 98 | 1002.0 |
| 20260508001553 | 11 | 316 | 6.4 | 12.9 | 0.00 | 2.16 | 2.16 | 97 | 1002.0 |
| 20260508000045 | 11 | 310 | 6.4 | 9.7 | 0.00 | 2.16 | 2.16 | 97 | 1001.7 |
| 20260507234545 | 11 | 299 | 6.4 | 9.7 | 0.00 | 2.16 | 2.16 | 97 | 1001.6 |
| 20260507233045 | 11 | 297 | 3.2 | 8.0 | 0.00 | 2.16 | 2.16 | 97 | 1001.8 |
| 20260507231546 | 11 | 297 | 4.8 | 14.5 | 0.00 | 2.16 | 2.16 | 97 | 1002.2 |
| 20260507230046 | 11 | 312 | 4.8 | 9.7 | 0.00 | 2.16 | 2.16 | 98 | 1002.0 |
| 20260507224543 | 11 | 214 | 0.0 | 8.0 | 0.00 | 2.16 | 2.16 | 98 | 1002.1 |
| 20260507223042 | 11 | 214 | 3.2 | 19.3 | 0.00 | 2.16 | 2.16 | 97 | 1002.0 |
| 20260507221541 | 11 | 214 | 12.9 | 19.3 | 0.00 | 2.16 | 2.16 | 98 | 1001.9 |
| 20260507220040 | 11 | 213 | 4.8 | 17.7 | 0.00 | 2.16 | 2.16 | 98 | 1001.9 |
| 20260507214545 | 11 | 230 | 17.7 | 25.7 | 0.00 | 2.16 | 2.16 | 98 | 1001.4 |
| 20260507213045 | 11 | 156 | 9.7 | 20.9 | 0.00 | 2.16 | 2.16 | 98 | 1001.8 |
| 20260507211548 | 11 | 145 | 6.4 | 16.1 | 0.00 | 2.16 | 2.16 | 98 | 1002.3 |
| 20260507210041 | 11 | 129 | 3.2 | 17.7 | 0.05 | 2.16 | 2.16 | 98 | 1002.2 |
| 20260507204539 | 10 | 122 | 14.5 | 24.1 | 0.08 | 2.16 | 2.16 | 98 | 1001.4 |
| 20260507203036 | 10 | 119 | 14.5 | 25.7 | 0.15 | 2.16 | 2.16 | 98 | 1001.5 |
| 20260507201543 | 10 | 117 | 16.1 | 27.4 | 0.28 | 2.16 | 2.16 | 98 | 1001.4 |
| 20260507200038 | 11 | 123 | 16.1 | 27.4 | 0.43 | 2.11 | 2.11 | 98 | 1002.0 |
| 20260507194531 | 11 | 113 | 11.3 | 16.1 | 0.56 | 2.08 | 2.08 | 98 | 1002.7 |
| 20260507193034 | 11 | 149 | 12.9 | 19.3 | 0.66 | 2.01 | 2.01 | 98 | 1002.7 |
| 20260507191528 | 11 | 166 | 9.7 | 17.7 | 0.71 | 1.88 | 1.88 | 97 | 1003.2 |
| 20260507190026 | 11 | 158 | 11.3 | 22.5 | 0.79 | 1.70 | 1.70 | 97 | 1003.6 |
| 20260507184525 | 11 | 193 | 16.1 | 25.7 | 0.89 | 1.52 | 1.52 | 97 | 1003.9 |
| 20260507183023 | 11 | 205 | 16.1 | 29.0 | 0.97 | 1.32 | 1.32 | 97 | 1004.4 |
| 20260507181523 | 11 | 179 | 14.5 | 22.5 | 0.97 | 1.14 | 1.14 | 98 | 1004.7 |
| 20260507180037 | 11 | 186 | 12.9 | 20.9 | 0.81 | 0.91 | 0.91 | 98 | 1004.7 |
| 20260507174525 | 11 | 185 | 14.5 | 25.7 | 0.56 | 0.64 | 0.64 | 98 | 1005.0 |
| 20260507173024 | 11 | 205 | 16.1 | 27.4 | 0.30 | 0.33 | 0.33 | 97 | 1005.1 |
| 20260507171516 | 10 | 171 | 14.5 | 32.2 | 0.15 | 0.15 | 0.15 | 97 | 1004.6 |
| 20260507170031 | 10 | 190 | 22.5 | 38.6 | 0.08 | 0.10 | 0.10 | 97 | 1004.5 |
| 20260507164512 | 10 | 142 | 19.3 | 32.2 | 0.05 | 0.08 | 0.08 | 97 | 1004.9 |
| 20260507161507 | 10 | 155 | 19.3 | 38.6 | 0.00 | 0.03 | 0.03 | 96 | 1005.6 |
| 20260507160004 | 10 | 141 | 22.5 | 41.8 | 0.00 | 0.03 | 0.03 | 96 | 1006.0 |
| 20260507154504 | 11 | 150 | 25.7 | 40.2 | 0.00 | 0.03 | 0.03 | 95 | 1006.4 |
| 20260507153107 | 11 | 157 | 24.1 | 43.5 | 0.00 | 0.03 | 0.03 | 96 | 1007.0 |